createdAt,value
2018-04-15T00:00:31.903Z,7.20
2018-04-15T00:02:59.873Z,6.23
2018-04-15T00:05:27.988Z,5.90
2018-04-15T00:07:56.079Z,6.43
2018-04-15T00:10:24.120Z,6.90
2018-04-15T00:12:51.731Z,6.07
2018-04-15T00:15:19.622Z,6.23
2018-04-15T00:17:47.230Z,6.73
2018-04-15T00:20:14.791Z,6.57
2018-04-15T00:22:42.355Z,6.67
2018-04-15T00:25:09.979Z,6.90
2018-04-15T00:27:37.662Z,7.03
2018-04-15T00:30:05.525Z,6.40
2018-04-15T00:32:33.130Z,6.87
2018-04-15T00:35:00.868Z,6.70
2018-04-15T00:37:28.427Z,6.47
2018-04-15T00:39:56.388Z,7.10
2018-04-15T00:42:23.979Z,7.30
2018-04-15T00:44:51.598Z,8.87
2018-04-15T00:47:19.164Z,6.90
2018-04-15T00:49:47.070Z,7.90
2018-04-15T00:52:14.691Z,8.00
2018-04-15T00:54:42.255Z,8.30
2018-04-15T00:57:09.818Z,8.67
2018-04-15T00:59:37.414Z,8.47
2018-04-15T01:02:05.656Z,9.37
2018-04-15T01:04:33.724Z,10.13
2018-04-15T01:07:01.292Z,9.47
2018-04-15T01:09:28.894Z,9.43
2018-04-15T01:11:57.140Z,10.80
2018-04-15T01:14:24.759Z,10.97
2018-04-15T01:16:52.828Z,11.30
2018-04-15T01:19:20.388Z,11.23
2018-04-15T01:21:47.998Z,16.80
2018-04-15T01:24:15.601Z,14.47
2018-04-15T01:26:43.466Z,13.40
2018-04-15T01:29:11.078Z,13.47
2018-04-15T01:31:39.973Z,13.83
2018-04-15T01:34:07.755Z,14.60
2018-04-15T01:36:35.729Z,15.30
2018-04-15T01:39:03.573Z,14.00
2018-04-15T01:41:31.134Z,14.57
2018-04-15T01:43:59.128Z,16.30
2018-04-15T01:46:26.693Z,15.70
2018-04-15T01:48:54.658Z,16.57
2018-04-15T01:51:22.264Z,18.10
2018-04-15T01:53:49.884Z,19.83
2018-04-15T01:56:17.439Z,18.67
2018-04-15T01:58:44.995Z,18.77
2018-04-15T02:01:12.611Z,18.67
2018-04-15T02:03:40.167Z,21.53
2018-04-15T02:06:08.319Z,20.30
2018-04-15T02:08:35.879Z,20.47
2018-04-15T02:11:03.827Z,21.37
2018-04-15T02:13:31.919Z,19.83
2018-04-15T02:15:59.984Z,19.83
2018-04-15T02:18:28.051Z,19.53
2018-04-15T02:20:55.662Z,20.17
2018-04-15T02:23:24.163Z,20.07
2018-04-15T02:25:52.319Z,21.63
2018-04-15T02:28:19.874Z,20.70
2018-04-15T02:30:48.425Z,21.63
2018-04-15T02:33:16.046Z,21.43
2018-04-15T02:35:43.937Z,22.67
2018-04-15T02:38:11.550Z,22.80
2018-04-15T02:40:39.267Z,26.57
2018-04-15T02:43:06.874Z,25.60
2018-04-15T02:45:34.442Z,25.23
2018-04-15T02:48:02.008Z,27.13
2018-04-15T02:50:29.806Z,28.83
2018-04-15T02:52:57.913Z,27.47
2018-04-15T02:55:25.467Z,28.03
2018-04-15T02:57:53.085Z,28.03
2018-04-15T03:00:21.607Z,29.53
2018-04-15T03:02:50.006Z,28.60
2018-04-15T03:05:17.627Z,27.33
2018-04-15T03:07:45.468Z,26.13
2018-04-15T03:10:13.603Z,24.90
2018-04-15T03:12:41.724Z,27.10
2018-04-15T03:15:09.789Z,29.77
2018-04-15T03:17:37.881Z,29.70
2018-04-15T03:20:05.483Z,27.63
2018-04-15T03:22:33.086Z,26.53
2018-04-15T03:25:01.153Z,28.23
2018-04-15T03:27:29.220Z,32.13
2018-04-15T03:29:56.822Z,32.20
2018-04-15T03:32:24.379Z,29.37
2018-04-15T03:34:52.020Z,28.37
2018-04-15T03:37:20.184Z,28.50
2018-04-15T03:39:47.800Z,28.87
2018-04-15T03:42:15.397Z,29.73
2018-04-15T03:44:43.490Z,30.47
2018-04-15T03:47:11.672Z,31.43
2018-04-15T03:49:39.827Z,31.03
2018-04-15T03:52:07.387Z,30.80
2018-04-15T03:54:35.007Z,31.57
2018-04-15T03:57:02.563Z,31.53
2018-04-15T03:59:30.119Z,34.27
2018-04-15T04:01:57.719Z,31.93
2018-04-15T04:04:25.338Z,32.60
2018-04-15T04:06:52.902Z,33.50
2018-04-15T04:09:20.520Z,33.47
2018-04-15T04:11:48.142Z,32.30
2018-04-15T04:14:15.708Z,32.47
2018-04-15T04:16:44.811Z,33.63
2018-04-15T04:19:24.698Z,33.03
2018-04-15T04:22:04.290Z,32.40
2018-04-15T04:24:44.066Z,34.57
2018-04-15T04:27:12.597Z,33.70
2018-04-15T04:29:40.449Z,35.40
2018-04-15T04:32:08.707Z,36.63
2018-04-15T04:34:36.528Z,33.83
2018-04-15T04:37:04.611Z,33.83
2018-04-15T04:39:32.175Z,40.03
2018-04-15T04:42:00.090Z,41.10
2018-04-15T04:44:27.647Z,36.80
2018-04-15T04:46:55.215Z,37.50
2018-04-15T04:49:22.775Z,39.33
2018-04-15T04:51:50.402Z,36.57
2018-04-15T04:54:17.979Z,37.47
2018-04-15T04:56:45.736Z,36.37
2018-04-15T04:59:13.983Z,38.20
2018-04-15T05:01:42.427Z,38.33
2018-04-15T05:04:10.383Z,39.27
2018-04-15T05:06:37.986Z,37.77
2018-04-15T05:09:07.006Z,37.23
2018-04-15T05:11:34.610Z,38.47
2018-04-15T05:14:02.842Z,38.70
2018-04-15T05:16:30.397Z,38.10
2018-04-15T05:18:58.021Z,38.13
2018-04-15T05:21:26.049Z,37.47
2018-04-15T05:23:54.203Z,38.83
2018-04-15T05:26:22.151Z,38.17
2018-04-15T05:28:49.758Z,37.20
2018-04-15T05:31:17.358Z,36.27
2018-04-15T05:33:45.874Z,37.37
2018-04-15T05:36:13.498Z,35.50
2018-04-15T05:38:41.054Z,37.10
2018-04-15T05:41:08.667Z,35.40
2018-04-15T05:43:36.268Z,36.20
2018-04-15T05:46:05.121Z,35.60
2018-04-15T05:48:32.725Z,38.67
2018-04-15T05:51:00.531Z,34.57
2018-04-15T05:53:28.349Z,36.40
2018-04-15T05:55:56.416Z,37.63
2018-04-15T05:58:24.685Z,34.93
2018-04-15T06:00:52.252Z,39.17
2018-04-15T06:03:19.813Z,38.13
2018-04-15T06:05:47.419Z,36.97
2018-04-15T06:08:15.834Z,36.60
2018-04-15T06:10:44.037Z,40.03
2018-04-15T06:13:12.102Z,37.93
2018-04-15T06:15:39.679Z,36.20
2018-04-15T06:18:09.278Z,40.37
2018-04-15T06:20:36.852Z,41.63
2018-04-15T06:23:04.517Z,40.80
2018-04-15T06:25:33.031Z,43.73
2018-04-15T06:28:00.934Z,40.77
2018-04-15T06:30:28.550Z,42.20
2018-04-15T06:32:57.426Z,40.27
2018-04-15T06:35:25.527Z,41.57
2018-04-15T06:37:53.098Z,39.80
2018-04-15T06:40:21.039Z,42.33
2018-04-15T06:42:48.675Z,40.20
2018-04-15T06:45:16.346Z,43.00
2018-04-15T06:47:44.008Z,41.30
2018-04-15T06:50:12.047Z,39.10
2018-04-15T06:52:40.599Z,41.73
2018-04-15T06:55:08.158Z,40.93
2018-04-15T06:57:37.143Z,39.40
2018-04-15T07:00:05.099Z,41.23
2018-04-15T07:02:32.655Z,41.77
2018-04-15T07:05:00.255Z,39.90
2018-04-15T07:07:27.848Z,39.80
2018-04-15T07:09:56.167Z,41.50
2018-04-15T07:12:23.950Z,40.13
2018-04-15T07:14:51.862Z,40.93
2018-04-15T07:17:19.698Z,39.73
2018-04-15T07:19:47.313Z,39.13
2018-04-15T07:22:14.870Z,39.43
2018-04-15T07:24:42.778Z,40.50
2018-04-15T07:27:10.876Z,41.90
2018-04-15T07:29:38.935Z,42.83
2018-04-15T07:32:06.491Z,39.80
2018-04-15T07:34:34.475Z,41.50
2018-04-15T07:37:02.676Z,41.03
2018-04-15T07:39:30.286Z,39.00
2018-04-15T07:41:57.958Z,41.80
2018-04-15T07:44:25.506Z,39.60
2018-04-15T07:46:55.200Z,40.57
2018-04-15T07:49:23.023Z,38.70
2018-04-15T07:51:51.662Z,39.87
2018-04-15T07:54:19.468Z,39.00
2018-04-15T07:56:47.355Z,40.30
2018-04-15T07:59:14.923Z,41.97
2018-04-15T08:01:42.535Z,38.93
2018-04-15T08:04:10.323Z,38.83
2018-04-15T08:06:38.258Z,37.17
2018-04-15T08:09:06.939Z,38.60
2018-04-15T08:11:34.898Z,38.70
2018-04-15T08:14:03.295Z,39.60
2018-04-15T08:16:30.910Z,38.63
2018-04-15T08:18:59.131Z,38.70
2018-04-15T08:21:28.119Z,38.53
2018-04-15T08:23:56.623Z,39.70
2018-04-15T08:26:24.684Z,40.03
2018-04-15T08:28:53.872Z,38.80
2018-04-15T08:31:21.874Z,42.63
2018-04-15T08:33:50.394Z,42.03
2018-04-15T08:36:18.015Z,42.10
2018-04-15T08:38:46.157Z,38.90
2018-04-15T08:41:13.713Z,38.63
2018-04-15T08:43:41.328Z,36.80
2018-04-15T08:46:08.899Z,40.23
2018-04-15T08:48:36.512Z,39.00
2018-04-15T08:51:04.071Z,39.40
2018-04-15T08:53:32.476Z,37.63
2018-04-15T08:56:00.627Z,38.53
2018-04-15T08:58:28.461Z,39.13
2018-04-15T09:00:56.079Z,38.67
2018-04-15T09:03:25.515Z,37.67
2018-04-15T09:05:53.126Z,39.33
2018-04-15T09:08:20.681Z,39.23
2018-04-15T09:10:49.363Z,38.33
2018-04-15T09:13:17.177Z,36.80
2018-04-15T09:15:44.815Z,37.50
2018-04-15T09:18:12.475Z,38.63
2018-04-15T09:20:40.177Z,38.73
2018-04-15T09:23:07.795Z,38.17
2018-04-15T09:25:36.570Z,40.57
2018-04-15T09:28:04.548Z,39.03
2018-04-15T09:30:32.191Z,39.27
2018-04-15T09:32:59.811Z,37.63
2018-04-15T09:35:27.371Z,39.47
2018-04-15T09:37:54.996Z,40.13
2018-04-15T09:40:23.726Z,42.10
2018-04-15T09:42:51.567Z,39.30
2018-04-15T09:45:19.616Z,40.10
2018-04-15T09:47:48.696Z,39.47
2018-04-15T09:50:16.279Z,40.23
2018-04-15T09:52:44.230Z,39.03
2018-04-15T09:55:12.169Z,39.97
2018-04-15T09:57:40.014Z,39.37
2018-04-15T10:00:08.554Z,39.57
2018-04-15T10:02:36.444Z,38.90
2018-04-15T10:05:04.584Z,38.90
2018-04-15T10:07:32.701Z,38.33
2018-04-15T10:10:00.579Z,39.23
2018-04-15T10:12:28.209Z,37.70
2018-04-15T10:14:59.818Z,37.07
2018-04-15T10:17:27.763Z,39.30
2018-04-15T10:19:56.267Z,38.53
2018-04-15T10:22:25.362Z,37.67
2018-04-15T10:24:53.764Z,38.13
2018-04-15T10:27:22.926Z,37.87
2018-04-15T10:29:51.623Z,38.37
2018-04-15T10:32:20.612Z,40.13
2018-04-15T10:34:48.511Z,39.63
2018-04-15T10:37:16.562Z,38.67
2018-04-15T10:39:44.523Z,38.20
2018-04-15T10:42:12.933Z,37.27
2018-04-15T10:44:40.815Z,39.63
2018-04-15T10:47:09.967Z,38.90
2018-04-15T10:49:39.146Z,37.70
2018-04-15T10:52:09.937Z,38.57
2018-04-15T10:54:38.403Z,37.30
2018-04-15T10:57:06.036Z,40.17
2018-04-15T10:59:34.228Z,37.40
2018-04-15T11:02:02.250Z,38.57
2018-04-15T11:04:30.082Z,37.60
2018-04-15T11:06:57.874Z,39.60
2018-04-15T11:09:27.179Z,39.57
2018-04-15T11:11:56.050Z,39.93
2018-04-15T11:14:24.639Z,38.13
2018-04-15T11:16:52.218Z,40.23
2018-04-15T11:19:20.410Z,40.73
2018-04-15T11:21:49.152Z,39.00
2018-04-15T11:24:18.007Z,41.37
2018-04-15T11:26:47.702Z,38.73
2018-04-15T11:29:16.388Z,39.43
2018-04-15T11:31:45.212Z,39.53
2018-04-15T11:34:13.450Z,39.40
2018-04-15T11:36:42.008Z,38.40
2018-04-15T11:39:10.514Z,40.20
2018-04-15T11:41:38.452Z,40.27
2018-04-15T11:44:06.271Z,38.43
2018-04-15T11:46:34.262Z,40.07
2018-04-15T11:49:02.155Z,38.53
2018-04-15T11:51:30.180Z,39.70
2018-04-15T11:53:57.718Z,38.70
2018-04-15T11:56:25.366Z,39.30
2018-04-15T11:58:52.930Z,38.83
2018-04-15T12:01:20.686Z,38.67
2018-04-15T12:03:49.469Z,36.63
2018-04-15T12:06:17.423Z,36.77
2018-04-15T12:08:45.043Z,36.83
2018-04-15T12:11:12.650Z,35.27
2018-04-15T12:13:40.281Z,37.00
2018-04-15T12:16:08.225Z,37.70
2018-04-15T12:18:36.165Z,36.43
2018-04-15T12:21:04.431Z,35.70
2018-04-15T12:23:32.008Z,38.03
2018-04-15T12:25:59.563Z,34.60
2018-04-15T12:28:27.667Z,35.53
2018-04-15T12:30:56.274Z,34.83
2018-04-15T12:33:24.838Z,34.37
2018-04-15T12:35:52.479Z,36.67
2018-04-15T12:38:20.111Z,34.97
2018-04-15T12:40:47.699Z,34.47
2018-04-15T12:43:15.315Z,34.83
2018-04-15T12:45:43.230Z,35.13
2018-04-15T12:48:11.272Z,36.97
2018-04-15T12:50:40.640Z,36.23
2018-04-15T12:53:08.547Z,34.70
2018-04-15T12:55:36.737Z,35.87
2018-04-15T12:58:04.838Z,36.70
2018-04-15T13:00:33.477Z,36.20
2018-04-15T13:03:01.650Z,35.60
2018-04-15T13:05:29.768Z,37.07
2018-04-15T13:07:57.346Z,36.77
2018-04-15T13:10:26.095Z,39.40
2018-04-15T13:12:54.753Z,33.97
2018-04-15T13:15:22.336Z,36.27
2018-04-15T13:17:50.498Z,34.73
2018-04-15T13:20:20.186Z,37.30
2018-04-15T13:22:49.418Z,37.20
2018-04-15T13:25:16.974Z,36.87
2018-04-15T13:27:45.057Z,38.27
2018-04-15T13:30:13.280Z,37.47
2018-04-15T13:32:41.767Z,38.03
2018-04-15T13:35:09.367Z,35.53
2018-04-15T13:37:37.928Z,38.83
2018-04-15T13:40:05.491Z,37.37
2018-04-15T13:42:33.306Z,39.70
2018-04-15T13:45:01.267Z,39.70
2018-04-15T13:47:29.464Z,36.70
2018-04-15T13:49:57.967Z,37.13
2018-04-15T13:52:25.527Z,37.17
2018-04-15T13:54:54.080Z,36.90
2018-04-15T13:57:21.704Z,37.53
2018-04-15T13:59:49.746Z,39.47
2018-04-15T14:02:17.833Z,37.40
2018-04-15T14:04:45.455Z,37.93
2018-04-15T14:07:13.894Z,37.60
2018-04-15T14:09:41.475Z,36.73
2018-04-15T14:12:09.035Z,37.33
2018-04-15T14:14:37.142Z,37.93
2018-04-15T14:17:04.699Z,37.93
2018-04-15T14:19:32.264Z,37.37
2018-04-15T14:21:59.922Z,37.47
2018-04-15T14:24:27.491Z,38.30
2018-04-15T14:26:55.056Z,38.67
2018-04-15T14:29:23.362Z,38.63
2018-04-15T14:31:51.824Z,39.87
2018-04-15T14:34:19.455Z,41.90
2018-04-15T14:36:47.355Z,40.00
2018-04-15T14:39:14.911Z,37.53
2018-04-15T14:41:43.037Z,38.07
2018-04-15T14:44:10.655Z,37.77
2018-04-15T14:46:38.744Z,39.33
2018-04-15T14:49:07.129Z,40.03
2018-04-15T14:51:35.598Z,37.23
2018-04-15T14:54:04.036Z,38.53
2018-04-15T14:56:32.003Z,37.57
2018-04-15T14:59:01.555Z,38.23
2018-04-15T15:01:29.182Z,38.87
2018-04-15T15:03:57.580Z,37.27
2018-04-15T15:06:25.143Z,38.10
2018-04-15T15:08:52.718Z,36.90
2018-04-15T15:11:20.647Z,36.50
2018-04-15T15:13:48.951Z,36.30
2018-04-15T15:16:16.598Z,34.77
2018-04-15T15:18:44.159Z,36.67
2018-04-15T15:21:11.847Z,35.23
2018-04-15T15:23:39.407Z,33.57
2018-04-15T15:26:07.227Z,36.17
2018-04-15T15:28:35.464Z,34.27
2018-04-15T15:31:03.025Z,32.90
2018-04-15T15:33:31.419Z,34.97
2018-04-15T15:35:58.983Z,34.63
2018-04-15T15:38:26.595Z,34.37
2018-04-15T15:40:56.419Z,33.23
2018-04-15T15:43:24.064Z,35.73
2018-04-15T15:45:51.631Z,37.07
2018-04-15T15:48:19.745Z,35.37
2018-04-15T15:50:47.303Z,36.20
2018-04-15T15:53:16.183Z,37.53
2018-04-15T15:55:43.783Z,38.47
2018-04-15T15:58:12.146Z,37.53
2018-04-15T16:00:39.755Z,37.07
2018-04-15T16:03:08.126Z,35.70
2018-04-15T16:05:35.683Z,34.50
2018-04-15T16:08:04.411Z,37.77
2018-04-15T16:10:31.971Z,38.03
2018-04-15T16:12:59.538Z,35.63
2018-04-15T16:15:27.472Z,35.00
2018-04-15T16:17:56.079Z,40.57
2018-04-15T16:20:23.706Z,41.50
2018-04-15T16:22:51.583Z,41.60
2018-04-15T16:25:19.142Z,41.43
2018-04-15T16:27:48.056Z,39.07
2018-04-15T16:30:16.861Z,42.67
2018-04-15T16:32:44.970Z,43.27
2018-04-15T16:35:12.660Z,45.40
2018-04-15T16:37:40.959Z,42.73
2018-04-15T16:40:08.584Z,45.10
2018-04-15T16:42:37.188Z,41.40
2018-04-15T16:45:04.755Z,44.07
2018-04-15T16:47:32.439Z,42.67
2018-04-15T16:50:01.087Z,41.00
2018-04-15T16:52:29.617Z,40.07
2018-04-15T16:54:57.372Z,38.47
2018-04-15T16:57:24.986Z,42.63
2018-04-15T16:59:53.049Z,42.63
2018-04-15T17:02:21.118Z,41.20
2018-04-15T17:04:48.716Z,40.43
2018-04-15T17:07:16.271Z,40.80
2018-04-15T17:09:43.878Z,42.33
2018-04-15T17:12:13.102Z,39.27
2018-04-15T17:14:40.715Z,45.63
2018-04-15T17:17:08.274Z,41.07
2018-04-15T17:19:36.653Z,41.17
2018-04-15T17:22:05.927Z,40.07
2018-04-15T17:24:33.882Z,40.50
2018-04-15T17:27:01.950Z,40.33
2018-04-15T17:29:29.755Z,39.97
2018-04-15T17:31:57.369Z,41.23
2018-04-15T17:34:24.933Z,41.13
2018-04-15T17:36:53.123Z,43.80
2018-04-15T17:39:23.348Z,44.70
2018-04-15T17:41:51.708Z,42.43
2018-04-15T17:44:20.090Z,45.53
2018-04-15T17:46:48.675Z,43.37
2018-04-15T17:49:16.231Z,42.43
2018-04-15T17:51:43.828Z,42.70
2018-04-15T17:54:12.406Z,42.07
2018-04-15T17:56:41.213Z,40.10
2018-04-15T17:59:08.790Z,42.70
2018-04-15T18:01:36.720Z,40.27
2018-04-15T18:04:04.836Z,41.47
2018-04-15T18:06:32.647Z,40.40
2018-04-15T18:09:01.694Z,40.90
2018-04-15T18:11:29.683Z,40.72
2018-04-15T18:13:57.418Z,39.30
2018-04-15T18:16:26.084Z,41.30
2018-04-15T18:18:53.707Z,40.47
2018-04-15T18:21:22.584Z,42.00
2018-04-15T18:23:50.713Z,39.80
2018-04-15T18:26:18.408Z,38.50
2018-04-15T18:28:46.289Z,39.57
2018-04-15T18:31:14.371Z,38.43
2018-04-15T18:33:42.431Z,43.60
2018-04-15T18:36:10.266Z,42.30
2018-04-15T18:38:38.218Z,42.10
2018-04-15T18:41:06.379Z,40.33
2018-04-15T18:43:33.980Z,40.90
2018-04-15T18:46:01.592Z,40.23
2018-04-15T18:48:30.583Z,42.50
2018-04-15T18:50:59.900Z,40.83
2018-04-15T18:53:29.827Z,39.67
2018-04-15T18:55:58.843Z,41.73
2018-04-15T18:58:28.272Z,43.33
2018-04-15T19:00:56.161Z,39.57
2018-04-15T19:03:23.788Z,44.33
2018-04-15T19:05:51.408Z,43.30
2018-04-15T19:08:19.224Z,41.73
2018-04-15T19:10:47.972Z,43.17
2018-04-15T19:13:16.330Z,41.83
2018-04-15T19:15:44.766Z,40.83
2018-04-15T19:18:15.124Z,42.63
2018-04-15T19:20:42.847Z,42.23
2018-04-15T19:23:10.935Z,39.87
2018-04-15T19:25:39.183Z,40.77
2018-04-15T19:28:07.231Z,43.37
2018-04-15T19:30:35.278Z,43.83
2018-04-15T19:33:03.247Z,44.03
2018-04-15T19:35:32.040Z,43.17
2018-04-15T19:38:00.581Z,42.40
2018-04-15T19:40:29.012Z,43.33
2018-04-15T19:42:58.466Z,44.93
2018-04-15T19:45:28.378Z,42.70
2018-04-15T19:47:56.007Z,44.07
2018-04-15T19:50:24.008Z,42.30
2018-04-15T19:52:52.244Z,42.97
2018-04-15T19:55:19.883Z,46.93
2018-04-15T19:57:47.444Z,45.40
2018-04-15T20:00:15.558Z,47.23
2018-04-15T20:02:43.441Z,43.83
2018-04-15T20:05:11.804Z,45.17
2018-04-15T20:07:39.375Z,43.43
2018-04-15T20:10:06.941Z,46.47
2018-04-15T20:12:34.994Z,44.97
2018-04-15T20:15:03.031Z,45.80
2018-04-15T20:17:31.556Z,44.83
2018-04-15T20:19:59.631Z,46.20
2018-04-15T20:22:27.998Z,43.03
2018-04-15T20:24:55.963Z,45.97
2018-04-15T20:27:23.867Z,44.23
2018-04-15T20:29:51.427Z,42.63
2018-04-15T20:32:19.003Z,43.93
2018-04-15T20:34:47.276Z,44.53
2018-04-15T20:37:14.839Z,43.77
2018-04-15T20:39:43.590Z,45.67
2018-04-15T20:42:11.332Z,42.90
2018-04-15T20:44:39.616Z,44.90
2018-04-15T20:47:07.839Z,45.00
2018-04-15T20:49:36.020Z,44.50
2018-04-15T20:52:03.591Z,42.37
2018-04-15T20:54:31.190Z,44.23
2018-04-15T20:56:58.978Z,44.53
2018-04-15T20:59:26.960Z,43.43
2018-04-15T21:01:55.166Z,44.37
2018-04-15T21:04:24.991Z,45.10
2018-04-15T21:06:52.574Z,43.63
2018-04-15T21:09:20.195Z,45.10
2018-04-15T21:11:48.055Z,42.20
2018-04-15T21:14:15.627Z,42.50
2018-04-15T21:16:44.392Z,43.20
2018-04-15T21:19:12.007Z,44.07
2018-04-15T21:21:39.662Z,43.33
2018-04-15T21:24:07.399Z,43.13
2018-04-15T21:26:34.958Z,44.80
2018-04-15T21:29:03.522Z,47.03
2018-04-15T21:31:31.636Z,45.57
2018-04-15T21:33:59.214Z,44.77
2018-04-15T21:36:28.268Z,44.23
2018-04-15T21:38:55.848Z,43.50
2018-04-15T21:41:23.979Z,43.63
2018-04-15T21:43:51.590Z,44.53
2018-04-15T21:46:19.421Z,44.13
2018-04-15T21:48:47.062Z,45.20
2018-04-15T21:51:15.366Z,45.13
2018-04-15T21:53:42.978Z,49.33
2018-04-15T21:56:11.074Z,46.43
2018-04-15T21:58:39.143Z,46.80
2018-04-15T22:01:07.190Z,47.30
2018-04-15T22:03:34.822Z,47.23
2018-04-15T22:06:02.368Z,43.70
2018-04-15T22:08:30.761Z,45.20
2018-04-15T22:10:58.593Z,45.27
2018-04-15T22:13:26.597Z,47.13
2018-04-15T22:15:54.201Z,45.37
2018-04-15T22:18:21.892Z,46.13
2018-04-15T22:20:49.504Z,44.00
2018-04-15T22:23:17.650Z,43.60
2018-04-15T22:25:45.274Z,43.73
2018-04-15T22:28:12.835Z,43.17
2018-04-15T22:30:41.349Z,42.63
2018-04-15T22:33:09.485Z,42.20
2018-04-15T22:35:37.551Z,43.33
2018-04-15T22:38:05.495Z,42.23
2018-04-15T22:40:33.334Z,43.50
2018-04-15T22:43:00.898Z,42.07
2018-04-15T22:45:28.504Z,41.73
2018-04-15T22:48:01.584Z,42.23
2018-04-15T22:50:34.651Z,43.63
2018-04-15T22:53:02.269Z,41.93
2018-04-15T22:55:30.251Z,42.47
2018-04-15T22:57:57.901Z,41.53
2018-04-15T23:00:25.462Z,41.77
2018-04-15T23:02:54.552Z,41.60
2018-04-15T23:05:22.735Z,41.93
2018-04-15T23:07:50.295Z,42.87
2018-04-15T23:10:18.546Z,41.73
2018-04-15T23:12:46.614Z,41.10
2018-04-15T23:15:14.704Z,40.27
2018-04-15T23:17:42.342Z,41.53
2018-04-15T23:20:09.933Z,40.83
2018-04-15T23:22:37.533Z,41.80
2018-04-15T23:25:05.131Z,41.87
2018-04-15T23:27:32.695Z,40.97
2018-04-15T23:30:00.512Z,40.47
2018-04-15T23:32:28.861Z,41.97
2018-04-15T23:34:56.681Z,39.40
2018-04-15T23:37:24.278Z,41.70
2018-04-15T23:39:51.902Z,41.00
2018-04-15T23:42:20.104Z,41.47
2018-04-15T23:44:47.669Z,40.10
2018-04-15T23:47:15.234Z,40.20
2018-04-15T23:49:43.103Z,39.10
2018-04-15T23:52:11.278Z,41.03
2018-04-15T23:54:38.835Z,39.77
2018-04-15T23:57:06.457Z,41.40
2018-04-15T23:59:34.041Z,40.20
